x

North Equatorial Two - 890 Nm East Of Martinique (41041) Wave Buoy

4:50pm - Sun 29th Mar 2015 All times are UTC.

  • Sig Wave height 5.9ft
  • Swell Direction
  • Peak Period 9s
  • Average Period 6s
  • Wind
    11mph, 16mph gusts
  • Sea Temp 78°f
  • Air Temp 75°f
  • Sea Pressure 1016.6mb

More Historic Weather Station data

Upgrade to MSW Pro to gain access to the past 30 days of data for over 8000 Wavebouys and Weather Stations around the globe.

Join Pro

Comparision Forecast

View Surf forecast
   
Sun 03/29 4:50pm 6ft 9s 6s 11 16 mph 1016.6mb 78f 75f
3:50pm 6ft 10s 7s 13 16 mph 1017.5mb 78f 75f
2:50pm 6.5ft 10s 7s 13 16 mph 1018.5mb 78f 75f
1:50pm 6.5ft 11s 6s 16 18 mph 1018.9mb 77f 75f
12:50pm 6.5ft 9s 7s 16 20 mph 1018.8mb 77f 75f
11:50am 6.5ft 11s 6s 16 20 mph 1019mb 77f 75f
10:50am 6ft 11s 7s 16 18 mph 1018.6mb 77f 75f
9:50am 6ft 10s 6s 16 20 mph 1018mb 77f 75f
8:50am 5.5ft 10s 6s 18 20 mph 1017.8mb 77f 74f
7:50am 6ft 10s 6s 16 18 mph 1017.5mb 77f 75f
6:50am 6ft 10s 6s 16 18 mph 1017.4mb 77f 74f
5:50am 6ft 9s 6s 16 18 mph 1017.6mb 77f 75f
4:50am 6ft 9s 6s 16 20 mph 1018.1mb 77f 75f
3:50am 6ft 9s 6s 18 22 mph 1018.9mb 77f 75f
2:50am 6ft 9s 6s 16 20 mph 1019.6mb 77f 75f
1:50am 5.5ft 10s 6s 16 20 mph 1019.9mb 77f 75f
12:50am 5ft 9s 6s 16 18 mph 1019.8mb 77f 75f
Sat 03/28 11:50pm 5.5ft 9s 6s 16 20 mph 1019.4mb 77f 75f
10:50pm 5ft 11s 6s 18 20 mph 1019mb 77f 75f
9:50pm 5ft 11s 6s 16 18 mph 1018.5mb 77f 75f
8:50pm 5ft 11s 6s 16 18 mph 1018mb 77f 76f
7:50pm 5ft 11s 6s 16 18 mph 1017.9mb 78f 76f
6:50pm 5ft 11s 6s 16 18 mph 1017.8mb 78f 76f
5:50pm 5ft 11s 6s 16 18 mph 1018mb 78f 76f
4:50pm 5ft 8s 6s 16 18 mph 1018.5mb 78f 76f
3:50pm 5.5ft 11s 6s 16 18 mph 1019.2mb 78f 76f
2:50pm 5ft 10s 6s 18 22 mph 1019.6mb 77f 75f
1:50pm 5.5ft 11s 6s 11 16 mph 1020.2mb 77f 74f
12:50pm 5.5ft 11s 6s 16
mph
1020.4mb 77f 74f
11:50am 5.5ft 11s 6s 16 20 mph 1020.3mb 77f 75f
10:50am 5.5ft 11s 6s 18 20 mph 1019.6mb 77f 75f
9:50am 5ft 11s 6s 18 20 mph 1019.1mb 77f 75f
8:50am 5.5ft 11s 6s 18 20 mph 1018.6mb 77f 75f
7:50am 5.5ft 10s 6s 16 20 mph 1018mb 77f 75f
6:50am 6ft 11s 6s 16 18 mph 1017.7mb 77f 74f
5:50am 5.5ft 11s 6s 13 16 mph 1017.8mb 77f 74f
4:50am 5.5ft 11s 6s 18 20 mph 1018.2mb 77f 74f
3:50am 5.5ft 10s 6s 18 22 mph 1018.7mb 77f 74f
2:50am 5ft 11s 6s 16 18 mph 1019.3mb 77f 75f
1:50am 5ft 11s 6s 16 20 mph 1019.6mb 77f 75f
12:50am 5ft 11s 6s 18 22 mph 1019.3mb 77f 75f
Fri 03/27 11:50pm 5.5ft 11s 6s 16 20 mph 1018.9mb 77f 75f
10:50pm 5.5ft 11s 6s 16 20 mph 1018.3mb 77f 75f
9:50pm 5.5ft 11s 6s 18 20 mph 1017.5mb 77f 75f
8:50pm 5.5ft 11s 6s 16 20 mph 1017mb 77f 76f
7:50pm 5.5ft 12s 6s 16 20 mph 1016.4mb 77f 76f
6:50pm 6ft 11s 6s 16 20 mph 1016mb 78f 76f
5:50pm 6ft 12s 6s 16 20 mph 1016.1mb 78f 76f
4:50pm 6ft 11s 6s 16 18 mph 1016.7mb 78f 75f
3:50pm 5.5ft 11s 6s 16 18 mph 1017.5mb 78f 76f
2:50pm 6ft 11s 6s 18 20 mph 1018.1mb 77f 76f
1:50pm 6ft 11s 6s 18 22 mph 1018.3mb 77f 76f
12:50pm 6ft 11s 6s 18 22 mph 1018.6mb 77f 76f
11:50am 6ft 11s 6s 20 22 mph 1018.3mb 77f 76f
10:50am 6ft 11s 6s 20 25 mph 1017.7mb 77f 75f
9:50am 5.5ft 11s 6s 18 22 mph 1017.3mb 77f 75f
8:50am 5ft 11s 6s 16 18 mph 1017mb 77f 75f
7:50am 5ft 11s 6s 20 22 mph 1016.2mb 77f 75f
6:50am 5ft 11s 6s 16 18 mph 1016.1mb 77f 75f
5:50am 5ft 11s 6s 11 13 mph 1016.4mb 77f 75f
4:50am 5ft 12s 6s 13 16 mph 1016.5mb 77f 75f
3:50am 5.5ft 11s 6s 13 18 mph 1017mb 77f 75f
2:50am 5ft 11s 6s 16 20 mph 1017.3mb 77f 75f
1:50am 5ft 12s 6s 13 16 mph 1017.7mb 77f 75f
12:50am 5ft 11s 6s 13 18 mph 1017.9mb 77f 75f
Thu 03/26 11:50pm 5ft 11s 6s 13 16 mph 1017.6mb 77f 75f
10:50pm 5ft 11s 6s 11 13 mph 1016.8mb 77f 75f
9:50pm 5.5ft 11s 6s 11 16 mph 1016.1mb 77f 75f
8:50pm 5ft 11s 6s 13 16 mph 1015.6mb 78f 75f
7:50pm 5ft 13s 6s 13 16 mph 1015.2mb 78f 75f
6:50pm 5.5ft 12s 6s 11 13 mph 1015.5mb 78f 76f
5:50pm 5ft 11s 6s 11 13 mph 1015.7mb 78f 76f
4:50pm 5ft 12s 6s 13 16 mph 1015.9mb 78f 76f
3:50pm 5.5ft 7s 6s 13 16 mph 1016.4mb 78f 75f
2:50pm 5ft 12s 6s 13 16 mph 1016.9mb 78f 75f
1:50pm 5.5ft 7s 6s 16 18 mph 1017.2mb 78f 75f
12:50pm 5.5ft 11s 6s 16 18 mph 1017.2mb 77f 75f
11:50am 5.5ft 13s 6s 16 18 mph 1016.9mb 77f 75f
10:50am 5.5ft 12s 6s 16 20 mph 1016.7mb 77f 75f
9:50am 6ft 12s 6s 16 20 mph 1016.4mb 77f 75f
8:50am 6ft 12s 6s 16 20 mph 1016.2mb 77f 74f
7:50am 5.5ft 12s 6s 16 18 mph 1015.7mb 77f 74f
6:50am 5.5ft 7s 6s 16 18 mph 1015.7mb 77f 75f
5:50am 6ft 13s 6s 16 20 mph 1015.9mb 77f 74f
4:50am 6ft 12s 6s 18 20 mph 1016.3mb 77f 74f
3:50am 5.5ft 13s 6s 16 18 mph 1017.1mb 77f 75f
2:50am 6ft 8s 6s 16 18 mph 1018mb 77f 75f
1:50am 5.5ft 13s 6s 18 20 mph 1017.9mb 77f 75f
12:50am 6ft 13s 6s 16 18 mph 1017.8mb 77f 75f
Wed 03/25 11:50pm 5.5ft 8s 6s 16 18 mph 1017.5mb 77f 75f
10:50pm 6ft 13s 6s 13 18 mph 1016.9mb 77f 74f
9:50pm 6ft 8s 6s 18 20 mph 1016.2mb 78f 75f
8:50pm 6ft 7s 6s 16 20 mph 1016mb 78f 74f
7:50pm 6ft 8s 6s 18 20 mph 1015.8mb 78f 74f
6:50pm 5.5ft 7s 6s 16 20 mph 1015.6mb 78f 73f